Ave Maria Segundo — 3389 — position and weather

sailwx.info

Track history (hours):
 
Tides and Currents Weather Stations Pressure Air Temp Water Temp Dewpoint Dewpoint Depression Visibility Wind Speed Wind Dir Waves Ship Positions

Ave Maria Segundo

Last reported at 2018-Mar-26 10:03 UTC. Time now 2018-Jun-19 20:21 UTC.
Position N 27°49' W 015°21'.
Warning: this ship's position is months out of date.

Length 24 m; draft 0.3 m.

MMSI: 224156290.

Date/timePositionNaut miles runAvg speedWind from/ knotsBaromVisibWave heightAir tempDewpointWater temp
2018-Mar-26 10:03N 27°49' W 015°21'0 8.6
2018-Mar-26 10:00N 27°49' W 015°21'4 8.7
2018-Mar-26 09:30N 27°52' W 015°17'4 8.5
2018-Mar-26 09:00N 27°55' W 015°14'4 8.5
2018-Mar-26 08:30N 27°58' W 015°10'4 8.5
2018-Mar-26 08:00N 28°00' W 015°06'14 8.5
2018-Mar-26 06:24N 28°08' W 014°54'3 8.7
2018-Mar-26 06:00N 28°10' W 014°50'4 8.2
2018-Mar-26 05:30N 28°13' W 014°47'72 7.7
2018-Mar-25 20:14N 28°54' W 013°40'0 0.4
2018-Mar-25 19:59N 28°54' W 013°40'4 7.2
2018-Mar-25 19:27N 28°55' W 013°36'4 7.9
2018-Mar-25 18:59N 28°57' W 013°32'1 1.8
2018-Mar-25 18:30N 28°58' W 013°32'0 0.0
2018-Mar-25 17:57N 28°58' W 013°32'0 0.0
2018-Mar-25 17:29N 28°58' W 013°32'0 0.0
2018-Mar-25 16:58N 28°58' W 013°32'0 0.0
2018-Mar-25 10:40N 28°58' W 013°32'0 0.0
2018-Mar-25 10:26N 28°58' W 013°32'0 0.0
2018-Mar-25 09:57N 28°58' W 013°32'0 0.0
2018-Mar-25 09:30N 28°58' W 013°32'0 0.0
2018-Mar-25 08:59N 28°58' W 013°32'0 0.0
2018-Mar-25 08:30N 28°58' W 013°32'0 0.0
2018-Mar-24 16:44N 28°58' W 013°32'0 0.0
2018-Mar-24 16:30N 28°58' W 013°32'0 0.0
2018-Mar-24 16:00N 28°58' W 013°32'0 0.0
2018-Mar-24 15:29N 28°58' W 013°32'0 0.0
2018-Mar-24 15:00N 28°58' W 013°32'0 0.0
2018-Mar-24 14:30N 28°58' W 013°32'0 0.0
2018-Mar-24 14:00N 28°58' W 013°32'0 0.0
2018-Mar-24 13:27N 28°58' W 013°32'0 0.0
2018-Mar-24 13:00N 28°58' W 013°32'0 0.0
2018-Mar-24 12:30N 28°58' W 013°32'0 0.0
2018-Mar-24 11:59N 28°58' W 013°32'0 0.0
2018-Mar-24 11:30N 28°58' W 013°32'0 0.0
2018-Mar-24 11:00N 28°58' W 013°32'0 0.0
2018-Mar-24 10:18N 28°58' W 013°32'0 0.0
2018-Mar-24 09:55N 28°58' W 013°32'0 0.0
2018-Mar-24 09:30N 28°58' W 013°32'0 0.0
2018-Mar-24 08:57N 28°58' W 013°32'0 0.0
2018-Mar-24 08:26N 28°58' W 013°32'0 0.0
2018-Mar-24 07:57N 28°58' W 013°32'0 0.0
2018-Mar-23 19:00N 28°58' W 013°32'0 0.0
2018-Mar-23 18:29N 28°58' W 013°32'0 0.0
2018-Mar-23 17:59N 28°58' W 013°32'0 0.0
2018-Mar-23 17:29N 28°58' W 013°32'0 0.0
2018-Mar-23 16:59N 28°58' W 013°32'0 0.0
2018-Mar-23 16:30N 28°58' W 013°32'0 0.0
2018-Mar-23 16:00N 28°58' W 013°32'0 0.0
2018-Mar-23 15:30N 28°58' W 013°32'0 0.0
2018-Mar-23 15:00N 28°58' W 013°32'0 0.0
2018-Mar-23 14:29N 28°58' W 013°32'0 0.0
2018-Mar-23 14:00N 28°58' W 013°32'0 0.0
2018-Mar-23 13:30N 28°58' W 013°32'0 0.0
2018-Mar-23 13:00N 28°58' W 013°32'0 0.0
2018-Mar-23 12:30N 28°58' W 013°32'0 0.0
2018-Mar-23 12:00N 28°58' W 013°32'0 0.0
2018-Mar-23 11:30N 28°58' W 013°32'0 0.0
2018-Mar-23 10:58N 28°58' W 013°32'0 0.0
2018-Mar-23 10:30N 28°58' W 013°32'0 0.0
2018-Mar-23 09:59N 28°58' W 013°32'0 0.0
2018-Mar-23 09:29N 28°58' W 013°32'0 0.0
2018-Mar-23 08:58N 28°58' W 013°32'0 0.0
2018-Mar-23 08:30N 28°58' W 013°32'0 0.0
2018-Mar-23 08:00N 28°58' W 013°32'0 0.0
2018-Mar-23 07:30N 28°58' W 013°32'0 0.0
2018-Mar-22 19:33N 28°58' W 013°32'0 0.1
2018-Mar-22 19:29N 28°58' W 013°32'0 0.0
2018-Mar-22 18:57N 28°58' W 013°32'0 0.0
2018-Mar-22 18:29N 28°58' W 013°32'0 0.0
2018-Mar-22 17:59N 28°58' W 013°32'0 0.0
2018-Mar-22 17:30N 28°58' W 013°32'0 0.0
2018-Mar-22 17:00N 28°58' W 013°32'0 0.0
2018-Mar-22 16:29N 28°58' W 013°32'0 0.0
2018-Mar-22 16:00N 28°58' W 013°32'0 0.0
2018-Mar-22 15:29N 28°58' W 013°32'0 0.0
2018-Mar-22 15:00N 28°58' W 013°32'0 0.0
2018-Mar-22 14:29N 28°58' W 013°32'0 0.0
2018-Mar-22 14:00N 28°58' W 013°32'0 0.3
2018-Mar-22 13:30N 28°58' W 013°32'0 0.0
2018-Mar-22 13:00N 28°58' W 013°32'0 0.0
2018-Mar-22 12:30N 28°58' W 013°32'0 0.0
2018-Mar-22 11:58N 28°58' W 013°32'0 0.0
2018-Mar-22 11:27N 28°58' W 013°32'0 0.0
2018-Mar-22 10:42N 28°58' W 013°32'  
Track history (hours):
 
Tides and Currents Weather Stations Pressure Air Temp Water Temp Dewpoint Dewpoint Depression Visibility Wind Speed Wind Dir Waves Ship Positions

Ave Maria Segundo

Last reported at 2018-Mar-26 10:03 UTC. Time now 2018-Jun-19 20:21 UTC.
Position N 27°49' W 015°21'.
Warning: this ship's position is months out of date.

Length 24 m; draft 0.3 m.

MMSI: 224156290.

Date/timePositionNaut miles runAvg speedWind from/ knotsBaromVisibWave heightAir tempDewpointWater temp
2018-Mar-26 10:03N 27°49' W 015°21'0 8.6
2018-Mar-26 10:00N 27°49' W 015°21'4 8.7
2018-Mar-26 09:30N 27°52' W 015°17'4 8.5
2018-Mar-26 09:00N 27°55' W 015°14'4 8.5
2018-Mar-26 08:30N 27°58' W 015°10'4 8.5
2018-Mar-26 08:00N 28°00' W 015°06'14 8.5
2018-Mar-26 06:24N 28°08' W 014°54'3 8.7
2018-Mar-26 06:00N 28°10' W 014°50'4 8.2
2018-Mar-26 05:30N 28°13' W 014°47'72 7.7
2018-Mar-25 20:14N 28°54' W 013°40'0 0.4
2018-Mar-25 19:59N 28°54' W 013°40'4 7.2
2018-Mar-25 19:27N 28°55' W 013°36'4 7.9
2018-Mar-25 18:59N 28°57' W 013°32'1 1.8
2018-Mar-25 18:30N 28°58' W 013°32'0 0.0
2018-Mar-25 17:57N 28°58' W 013°32'0 0.0
2018-Mar-25 17:29N 28°58' W 013°32'0 0.0
2018-Mar-25 16:58N 28°58' W 013°32'0 0.0
2018-Mar-25 10:40N 28°58' W 013°32'0 0.0
2018-Mar-25 10:26N 28°58' W 013°32'0 0.0
2018-Mar-25 09:57N 28°58' W 013°32'0 0.0
2018-Mar-25 09:30N 28°58' W 013°32'0 0.0
2018-Mar-25 08:59N 28°58' W 013°32'0 0.0
2018-Mar-25 08:30N 28°58' W 013°32'0 0.0
2018-Mar-24 16:44N 28°58' W 013°32'0 0.0
2018-Mar-24 16:30N 28°58' W 013°32'0 0.0
2018-Mar-24 16:00N 28°58' W 013°32'0 0.0
2018-Mar-24 15:29N 28°58' W 013°32'0 0.0
2018-Mar-24 15:00N 28°58' W 013°32'0 0.0
2018-Mar-24 14:30N 28°58' W 013°32'0 0.0
2018-Mar-24 14:00N 28°58' W 013°32'0 0.0
2018-Mar-24 13:27N 28°58' W 013°32'0 0.0
2018-Mar-24 13:00N 28°58' W 013°32'0 0.0
2018-Mar-24 12:30N 28°58' W 013°32'0 0.0
2018-Mar-24 11:59N 28°58' W 013°32'0 0.0
2018-Mar-24 11:30N 28°58' W 013°32'0 0.0
2018-Mar-24 11:00N 28°58' W 013°32'0 0.0
2018-Mar-24 10:18N 28°58' W 013°32'0 0.0
2018-Mar-24 09:55N 28°58' W 013°32'0 0.0
2018-Mar-24 09:30N 28°58' W 013°32'0 0.0
2018-Mar-24 08:57N 28°58' W 013°32'0 0.0
2018-Mar-24 08:26N 28°58' W 013°32'0 0.0
2018-Mar-24 07:57N 28°58' W 013°32'0 0.0
2018-Mar-23 19:00N 28°58' W 013°32'0 0.0
2018-Mar-23 18:29N 28°58' W 013°32'0 0.0
2018-Mar-23 17:59N 28°58' W 013°32'0 0.0
2018-Mar-23 17:29N 28°58' W 013°32'0 0.0
2018-Mar-23 16:59N 28°58' W 013°32'0 0.0
2018-Mar-23 16:30N 28°58' W 013°32'0 0.0
2018-Mar-23 16:00N 28°58' W 013°32'0 0.0
2018-Mar-23 15:30N 28°58' W 013°32'0 0.0
2018-Mar-23 15:00N 28°58' W 013°32'0 0.0
2018-Mar-23 14:29N 28°58' W 013°32'0 0.0
2018-Mar-23 14:00N 28°58' W 013°32'0 0.0
2018-Mar-23 13:30N 28°58' W 013°32'0 0.0
2018-Mar-23 13:00N 28°58' W 013°32'0 0.0
2018-Mar-23 12:30N 28°58' W 013°32'0 0.0
2018-Mar-23 12:00N 28°58' W 013°32'0 0.0
2018-Mar-23 11:30N 28°58' W 013°32'0 0.0
2018-Mar-23 10:58N 28°58' W 013°32'0 0.0
2018-Mar-23 10:30N 28°58' W 013°32'0 0.0
2018-Mar-23 09:59N 28°58' W 013°32'0 0.0
2018-Mar-23 09:29N 28°58' W 013°32'0 0.0
2018-Mar-23 08:58N 28°58' W 013°32'0 0.0
2018-Mar-23 08:30N 28°58' W 013°32'0 0.0
2018-Mar-23 08:00N 28°58' W 013°32'0 0.0
2018-Mar-23 07:30N 28°58' W 013°32'0 0.0
2018-Mar-22 19:33N 28°58' W 013°32'0 0.1
2018-Mar-22 19:29N 28°58' W 013°32'0 0.0
2018-Mar-22 18:57N 28°58' W 013°32'0 0.0
2018-Mar-22 18:29N 28°58' W 013°32'0 0.0
2018-Mar-22 17:59N 28°58' W 013°32'0 0.0
2018-Mar-22 17:30N 28°58' W 013°32'0 0.0
2018-Mar-22 17:00N 28°58' W 013°32'0 0.0
2018-Mar-22 16:29N 28°58' W 013°32'0 0.0
2018-Mar-22 16:00N 28°58' W 013°32'0 0.0
2018-Mar-22 15:29N 28°58' W 013°32'0 0.0
2018-Mar-22 15:00N 28°58' W 013°32'0 0.0
2018-Mar-22 14:29N 28°58' W 013°32'0 0.0
2018-Mar-22 14:00N 28°58' W 013°32'0 0.3
2018-Mar-22 13:30N 28°58' W 013°32'0 0.0
2018-Mar-22 13:00N 28°58' W 013°32'0 0.0
2018-Mar-22 12:30N 28°58' W 013°32'0 0.0
2018-Mar-22 11:58N 28°58' W 013°32'0 0.0
2018-Mar-22 11:27N 28°58' W 013°32'0 0.0
2018-Mar-22 10:42N 28°58' W 013°32'  

Dump ship's entire track history